sensor_id;sensor_type;location;lat;lon;timestamp;temperature;humidity
11908;DHT22;6014;47.690;9.130;2022-12-07T00:01:46;2.80;99.90
11908;DHT22;6014;47.690;9.130;2022-12-07T00:04:17;2.90;99.90
11908;DHT22;6014;47.690;9.130;2022-12-07T00:06:50;2.90;99.90
11908;DHT22;6014;47.690;9.130;2022-12-07T00:09:21;2.80;99.90
11908;DHT22;6014;47.690;9.130;2022-12-07T00:11:50;2.90;99.90
11908;DHT22;6014;47.690;9.130;2022-12-07T00:14:22;2.90;99.90
11908;DHT22;6014;47.690;9.130;2022-12-07T00:16:51;2.90;99.90
11908;DHT22;6014;47.690;9.130;2022-12-07T00:19:20;2.90;99.90
11908;DHT22;6014;47.690;9.130;2022-12-07T00:21:49;2.90;99.90
11908;DHT22;6014;47.690;9.130;2022-12-07T00:24:18;2.90;99.90
11908;DHT22;6014;47.690;9.130;2022-12-07T00:26:46;3.00;99.90
11908;DHT22;6014;47.690;9.130;2022-12-07T00:29:17;3.00;99.90
11908;DHT22;6014;47.690;9.130;2022-12-07T00:31:48;3.00;99.90
11908;DHT22;6014;47.690;9.130;2022-12-07T00:34:18;3.00;99.90
11908;DHT22;6014;47.690;9.130;2022-12-07T00:36:50;3.00;99.90
11908;DHT22;6014;47.690;9.130;2022-12-07T00:39:18;3.00;99.90
11908;DHT22;6014;47.690;9.130;2022-12-07T00:41:47;3.10;99.90
11908;DHT22;6014;47.690;9.130;2022-12-07T00:44:15;3.10;99.90
11908;DHT22;6014;47.690;9.130;2022-12-07T00:46:43;3.10;99.90
11908;DHT22;6014;47.690;9.130;2022-12-07T00:49:14;3.00;99.90
11908;DHT22;6014;47.690;9.130;2022-12-07T00:51:44;3.00;99.90
11908;DHT22;6014;47.690;9.130;2022-12-07T00:54:12;2.90;99.90
11908;DHT22;6014;47.690;9.130;2022-12-07T00:56:40;2.90;99.90
11908;DHT22;6014;47.690;9.130;2022-12-07T00:59:12;2.90;99.90
11908;DHT22;6014;47.690;9.130;2022-12-07T01:01:41;2.90;99.90
11908;DHT22;6014;47.690;9.130;2022-12-07T01:04:10;2.90;99.90
11908;DHT22;6014;47.690;9.130;2022-12-07T01:06:40;2.90;99.90
11908;DHT22;6014;47.690;9.130;2022-12-07T01:09:08;2.90;99.90
11908;DHT22;6014;47.690;9.130;2022-12-07T01:11:36;2.80;99.90
11908;DHT22;6014;47.690;9.130;2022-12-07T01:14:05;2.80;99.90
11908;DHT22;6014;47.690;9.130;2022-12-07T01:16:33;2.80;99.90
11908;DHT22;6014;47.690;9.130;2022-12-07T01:19:03;2.80;99.90
11908;DHT22;6014;47.690;9.130;2022-12-07T01:21:33;2.80;99.90
11908;DHT22;6014;47.690;9.130;2022-12-07T01:24:07;2.80;99.90
11908;DHT22;6014;47.690;9.130;2022-12-07T01:26:38;2.80;99.90
11908;DHT22;6014;47.690;9.130;2022-12-07T01:29:08;2.80;99.90
11908;DHT22;6014;47.690;9.130;2022-12-07T01:31:36;2.70;99.90
11908;DHT22;6014;47.690;9.130;2022-12-07T01:34:04;2.70;99.90
11908;DHT22;6014;47.690;9.130;2022-12-07T01:36:35;2.70;99.90
11908;DHT22;6014;47.690;9.130;2022-12-07T01:39:06;2.70;99.90
11908;DHT22;6014;47.690;9.130;2022-12-07T01:41:38;2.70;99.90
11908;DHT22;6014;47.690;9.130;2022-12-07T01:44:14;2.70;99.90
11908;DHT22;6014;47.690;9.130;2022-12-07T01:46:48;2.80;99.90
11908;DHT22;6014;47.690;9.130;2022-12-07T01:49:28;2.80;99.90
11908;DHT22;6014;47.690;9.130;2022-12-07T01:52:13;2.80;99.90
11908;DHT22;6014;47.690;9.130;2022-12-07T01:54:48;2.80;99.90
11908;DHT22;6014;47.690;9.130;2022-12-07T01:57:18;2.70;99.90
11908;DHT22;6014;47.690;9.130;2022-12-07T01:59:49;2.80;99.90
11908;DHT22;6014;47.690;9.130;2022-12-07T02:02:21;2.80;99.90
11908;DHT22;6014;47.690;9.130;2022-12-07T02:04:52;2.80;99.90
11908;DHT22;6014;47.690;9.130;2022-12-07T02:07:22;2.80;99.90
11908;DHT22;6014;47.690;9.130;2022-12-07T02:09:52;2.90;99.90
11908;DHT22;6014;47.690;9.130;2022-12-07T02:12:22;2.90;99.90
11908;DHT22;6014;47.690;9.130;2022-12-07T02:14:51;2.80;99.90
11908;DHT22;6014;47.690;9.130;2022-12-07T02:17:24;2.90;99.90
11908;DHT22;6014;47.690;9.130;2022-12-07T02:20:17;2.90;99.90
11908;DHT22;6014;47.690;9.130;2022-12-07T02:26:23;2.90;99.90
11908;DHT22;6014;47.690;9.130;2022-12-07T02:29:11;2.90;99.90
11908;DHT22;6014;47.690;9.130;2022-12-07T02:31:46;2.90;99.90
11908;DHT22;6014;47.690;9.130;2022-12-07T02:34:26;2.90;99.90
11908;DHT22;6014;47.690;9.130;2022-12-07T02:37:09;2.90;99.90
11908;DHT22;6014;47.690;9.130;2022-12-07T02:39:42;3.00;99.90
11908;DHT22;6014;47.690;9.130;2022-12-07T02:42:17;3.00;99.90
11908;DHT22;6014;47.690;9.130;2022-12-07T02:44:50;3.00;99.90
11908;DHT22;6014;47.690;9.130;2022-12-07T02:47:21;3.00;99.90
11908;DHT22;6014;47.690;9.130;2022-12-07T02:49:52;3.00;99.90
11908;DHT22;6014;47.690;9.130;2022-12-07T02:52:20;3.00;99.90
11908;DHT22;6014;47.690;9.130;2022-12-07T02:54:51;3.00;99.90
11908;DHT22;6014;47.690;9.130;2022-12-07T02:57:42;3.00;99.90
11908;DHT22;6014;47.690;9.130;2022-12-07T03:00:19;3.00;99.90
11908;DHT22;6014;47.690;9.130;2022-12-07T03:02:53;3.10;99.90
11908;DHT22;6014;47.690;9.130;2022-12-07T03:05:46;3.10;99.90
11908;DHT22;6014;47.690;9.130;2022-12-07T03:08:26;3.10;99.90
11908;DHT22;6014;47.690;9.130;2022-12-07T03:11:02;3.00;99.90
11908;DHT22;6014;47.690;9.130;2022-12-07T03:13:34;3.00;99.90
11908;DHT22;6014;47.690;9.130;2022-12-07T03:16:12;3.10;99.90
11908;DHT22;6014;47.690;9.130;2022-12-07T03:18:46;3.10;99.90
11908;DHT22;6014;47.690;9.130;2022-12-07T03:21:18;3.10;99.90
11908;DHT22;6014;47.690;9.130;2022-12-07T03:23:53;3.10;99.90
11908;DHT22;6014;47.690;9.130;2022-12-07T03:26:30;3.00;99.90
11908;DHT22;6014;47.690;9.130;2022-12-07T03:29:02;3.00;99.90
11908;DHT22;6014;47.690;9.130;2022-12-07T03:31:37;3.10;99.90
11908;DHT22;6014;47.690;9.130;2022-12-07T03:34:13;3.00;99.90
11908;DHT22;6014;47.690;9.130;2022-12-07T03:36:46;3.00;99.90
11908;DHT22;6014;47.690;9.130;2022-12-07T03:39:23;3.00;99.90
11908;DHT22;6014;47.690;9.130;2022-12-07T03:41:53;3.00;99.90
11908;DHT22;6014;47.690;9.130;2022-12-07T03:44:22;3.10;99.90
11908;DHT22;6014;47.690;9.130;2022-12-07T03:47:00;3.10;99.90
11908;DHT22;6014;47.690;9.130;2022-12-07T03:49:36;3.00;99.90
11908;DHT22;6014;47.690;9.130;2022-12-07T03:52:11;3.10;99.90
11908;DHT22;6014;47.690;9.130;2022-12-07T03:54:47;3.00;99.90
11908;DHT22;6014;47.690;9.130;2022-12-07T03:57:17;3.00;99.90
11908;DHT22;6014;47.690;9.130;2022-12-07T03:59:47;3.00;99.90
11908;DHT22;6014;47.690;9.130;2022-12-07T04:02:17;3.00;99.90
11908;DHT22;6014;47.690;9.130;2022-12-07T04:04:46;3.00;99.90
11908;DHT22;6014;47.690;9.130;2022-12-07T04:09:53;3.00;99.90
11908;DHT22;6014;47.690;9.130;2022-12-07T04:12:22;3.00;99.90
11908;DHT22;6014;47.690;9.130;2022-12-07T04:14:50;3.00;99.90
11908;DHT22;6014;47.690;9.130;2022-12-07T04:17:20;3.00;99.90
11908;DHT22;6014;47.690;9.130;2022-12-07T04:19:48;3.00;99.90
11908;DHT22;6014;47.690;9.130;2022-12-07T04:22:17;3.00;99.90
11908;DHT22;6014;47.690;9.130;2022-12-07T04:24:45;3.00;99.90
11908;DHT22;6014;47.690;9.130;2022-12-07T04:27:13;3.00;99.90
11908;DHT22;6014;47.690;9.130;2022-12-07T04:29:42;3.00;99.90
11908;DHT22;6014;47.690;9.130;2022-12-07T04:32:10;3.00;99.90
11908;DHT22;6014;47.690;9.130;2022-12-07T04:34:40;3.00;99.90
11908;DHT22;6014;47.690;9.130;2022-12-07T04:37:08;3.00;99.90
11908;DHT22;6014;47.690;9.130;2022-12-07T04:39:37;2.90;99.90
11908;DHT22;6014;47.690;9.130;2022-12-07T04:42:05;2.90;99.90
11908;DHT22;6014;47.690;9.130;2022-12-07T04:44:34;2.90;99.90
11908;DHT22;6014;47.690;9.130;2022-12-07T04:47:02;2.90;99.90
11908;DHT22;6014;47.690;9.130;2022-12-07T04:49:31;2.80;99.90
11908;DHT22;6014;47.690;9.130;2022-12-07T04:52:01;2.90;99.90
11908;DHT22;6014;47.690;9.130;2022-12-07T04:54:29;2.80;99.90
11908;DHT22;6014;47.690;9.130;2022-12-07T04:56:58;2.80;99.90
11908;DHT22;6014;47.690;9.130;2022-12-07T04:59:26;2.80;99.90
11908;DHT22;6014;47.690;9.130;2022-12-07T05:01:55;2.70;99.90
11908;DHT22;6014;47.690;9.130;2022-12-07T05:04:23;2.70;99.90
11908;DHT22;6014;47.690;9.130;2022-12-07T05:06:51;2.70;99.90
11908;DHT22;6014;47.690;9.130;2022-12-07T05:09:21;2.80;99.90
11908;DHT22;6014;47.690;9.130;2022-12-07T05:11:49;2.70;99.90
11908;DHT22;6014;47.690;9.130;2022-12-07T05:14:20;2.70;99.90
11908;DHT22;6014;47.690;9.130;2022-12-07T05:16:50;2.80;99.90
11908;DHT22;6014;47.690;9.130;2022-12-07T05:19:19;2.80;99.90
11908;DHT22;6014;47.690;9.130;2022-12-07T05:21:47;2.80;99.90
11908;DHT22;6014;47.690;9.130;2022-12-07T05:24:16;2.70;99.90
11908;DHT22;6014;47.690;9.130;2022-12-07T05:26:46;2.80;99.90
11908;DHT22;6014;47.690;9.130;2022-12-07T05:29:16;2.80;99.90
11908;DHT22;6014;47.690;9.130;2022-12-07T05:31:45;2.80;99.90
11908;DHT22;6014;47.690;9.130;2022-12-07T05:34:14;2.80;99.90
11908;DHT22;6014;47.690;9.130;2022-12-07T05:36:42;2.90;99.90
11908;DHT22;6014;47.690;9.130;2022-12-07T05:39:10;2.90;99.90
11908;DHT22;6014;47.690;9.130;2022-12-07T05:41:39;2.90;99.90
11908;DHT22;6014;47.690;9.130;2022-12-07T05:44:27;2.90;99.90
11908;DHT22;6014;47.690;9.130;2022-12-07T05:46:55;3.00;99.90
11908;DHT22;6014;47.690;9.130;2022-12-07T05:49:23;3.00;99.90
11908;DHT22;6014;47.690;9.130;2022-12-07T05:51:52;3.00;99.90
11908;DHT22;6014;47.690;9.130;2022-12-07T05:54:20;2.90;99.90
11908;DHT22;6014;47.690;9.130;2022-12-07T05:56:49;2.90;99.90
11908;DHT22;6014;47.690;9.130;2022-12-07T05:59:17;3.00;99.90
11908;DHT22;6014;47.690;9.130;2022-12-07T06:01:53;2.90;99.90
11908;DHT22;6014;47.690;9.130;2022-12-07T06:04:24;3.00;99.90
11908;DHT22;6014;47.690;9.130;2022-12-07T06:06:53;2.90;99.90
11908;DHT22;6014;47.690;9.130;2022-12-07T06:09:25;2.90;99.90
11908;DHT22;6014;47.690;9.130;2022-12-07T06:11:54;3.00;99.90
11908;DHT22;6014;47.690;9.130;2022-12-07T06:14:41;3.00;99.90
11908;DHT22;6014;47.690;9.130;2022-12-07T06:17:11;3.00;99.90
11908;DHT22;6014;47.690;9.130;2022-12-07T06:19:40;3.00;99.90
11908;DHT22;6014;47.690;9.130;2022-12-07T06:22:09;3.00;99.90
11908;DHT22;6014;47.690;9.130;2022-12-07T06:24:39;2.90;99.90
11908;DHT22;6014;47.690;9.130;2022-12-07T06:27:09;2.90;99.90
11908;DHT22;6014;47.690;9.130;2022-12-07T06:29:41;2.90;99.90
11908;DHT22;6014;47.690;9.130;2022-12-07T06:32:11;2.90;99.90
11908;DHT22;6014;47.690;9.130;2022-12-07T06:34:46;2.80;99.90
11908;DHT22;6014;47.690;9.130;2022-12-07T06:37:19;2.80;99.90
11908;DHT22;6014;47.690;9.130;2022-12-07T06:39:48;2.80;99.90
11908;DHT22;6014;47.690;9.130;2022-12-07T06:42:16;2.80;99.90
11908;DHT22;6014;47.690;9.130;2022-12-07T06:44:46;2.80;99.90
11908;DHT22;6014;47.690;9.130;2022-12-07T06:47:16;2.80;99.90
11908;DHT22;6014;47.690;9.130;2022-12-07T06:50:05;2.80;99.90
11908;DHT22;6014;47.690;9.130;2022-12-07T06:52:34;2.90;99.90
11908;DHT22;6014;47.690;9.130;2022-12-07T06:55:03;2.90;99.90
11908;DHT22;6014;47.690;9.130;2022-12-07T06:57:32;2.90;99.90
11908;DHT22;6014;47.690;9.130;2022-12-07T07:00:01;2.90;99.90
11908;DHT22;6014;47.690;9.130;2022-12-07T07:02:32;2.90;99.90
11908;DHT22;6014;47.690;9.130;2022-12-07T07:05:01;3.00;99.90
11908;DHT22;6014;47.690;9.130;2022-12-07T07:07:29;3.00;99.90
11908;DHT22;6014;47.690;9.130;2022-12-07T07:10:07;3.00;99.90
11908;DHT22;6014;47.690;9.130;2022-12-07T07:12:36;3.00;99.90
11908;DHT22;6014;47.690;9.130;2022-12-07T07:15:05;3.00;99.90
11908;DHT22;6014;47.690;9.130;2022-12-07T07:17:36;3.00;99.90
11908;DHT22;6014;47.690;9.130;2022-12-07T07:20:05;3.00;99.90
11908;DHT22;6014;47.690;9.130;2022-12-07T07:22:34;3.10;99.90
11908;DHT22;6014;47.690;9.130;2022-12-07T07:25:03;3.10;99.90
11908;DHT22;6014;47.690;9.130;2022-12-07T07:27:32;3.00;99.90
11908;DHT22;6014;47.690;9.130;2022-12-07T07:30:00;3.10;99.90
11908;DHT22;6014;47.690;9.130;2022-12-07T07:32:29;3.10;99.90
11908;DHT22;6014;47.690;9.130;2022-12-07T07:35:00;3.00;99.90
11908;DHT22;6014;47.690;9.130;2022-12-07T07:37:30;3.10;99.90
11908;DHT22;6014;47.690;9.130;2022-12-07T07:39:58;3.10;99.90
11908;DHT22;6014;47.690;9.130;2022-12-07T07:42:27;3.20;99.90
11908;DHT22;6014;47.690;9.130;2022-12-07T07:44:55;3.20;99.90
11908;DHT22;6014;47.690;9.130;2022-12-07T07:47:24;3.10;99.90
11908;DHT22;6014;47.690;9.130;2022-12-07T07:49:52;3.10;99.90
11908;DHT22;6014;47.690;9.130;2022-12-07T07:52:22;3.10;99.90
11908;DHT22;6014;47.690;9.130;2022-12-07T07:54:51;3.20;99.90
11908;DHT22;6014;47.690;9.130;2022-12-07T07:57:20;3.20;99.90
11908;DHT22;6014;47.690;9.130;2022-12-07T07:59:48;3.20;99.90
11908;DHT22;6014;47.690;9.130;2022-12-07T08:02:18;3.20;99.90
11908;DHT22;6014;47.690;9.130;2022-12-07T08:04:47;3.20;99.90
11908;DHT22;6014;47.690;9.130;2022-12-07T08:07:16;3.30;99.90
11908;DHT22;6014;47.690;9.130;2022-12-07T08:09:45;3.30;99.90
11908;DHT22;6014;47.690;9.130;2022-12-07T08:12:14;3.30;99.90
11908;DHT22;6014;47.690;9.130;2022-12-07T08:14:42;3.30;99.90
11908;DHT22;6014;47.690;9.130;2022-12-07T08:17:10;3.30;99.90
11908;DHT22;6014;47.690;9.130;2022-12-07T08:19:39;3.30;99.90
11908;DHT22;6014;47.690;9.130;2022-12-07T08:22:07;3.30;99.90
11908;DHT22;6014;47.690;9.130;2022-12-07T08:24:36;3.30;99.90
11908;DHT22;6014;47.690;9.130;2022-12-07T08:27:05;3.30;99.90
11908;DHT22;6014;47.690;9.130;2022-12-07T08:29:34;3.40;99.90
11908;DHT22;6014;47.690;9.130;2022-12-07T08:32:02;3.40;99.90
11908;DHT22;6014;47.690;9.130;2022-12-07T08:34:35;3.40;99.90
11908;DHT22;6014;47.690;9.130;2022-12-07T08:37:04;3.40;99.90
11908;DHT22;6014;47.690;9.130;2022-12-07T08:39:32;3.40;99.90
11908;DHT22;6014;47.690;9.130;2022-12-07T08:42:01;3.50;99.90
11908;DHT22;6014;47.690;9.130;2022-12-07T08:44:31;3.40;99.90
11908;DHT22;6014;47.690;9.130;2022-12-07T08:47:04;3.40;99.90
11908;DHT22;6014;47.690;9.130;2022-12-07T08:49:37;3.50;99.90
11908;DHT22;6014;47.690;9.130;2022-12-07T08:52:06;3.60;99.90
11908;DHT22;6014;47.690;9.130;2022-12-07T08:54:36;3.60;99.90
11908;DHT22;6014;47.690;9.130;2022-12-07T08:57:05;3.50;99.90
11908;DHT22;6014;47.690;9.130;2022-12-07T08:59:37;3.50;99.90
11908;DHT22;6014;47.690;9.130;2022-12-07T09:02:05;3.50;99.90
11908;DHT22;6014;47.690;9.130;2022-12-07T09:04:34;3.60;99.90
11908;DHT22;6014;47.690;9.130;2022-12-07T09:07:02;3.70;99.90
11908;DHT22;6014;47.690;9.130;2022-12-07T09:09:31;3.70;99.90
11908;DHT22;6014;47.690;9.130;2022-12-07T09:11:59;3.70;99.90
11908;DHT22;6014;47.690;9.130;2022-12-07T09:14:27;3.70;99.90
11908;DHT22;6014;47.690;9.130;2022-12-07T09:17:05;3.70;99.90
11908;DHT22;6014;47.690;9.130;2022-12-07T09:19:34;3.80;99.90
11908;DHT22;6014;47.690;9.130;2022-12-07T09:22:02;3.80;99.90
11908;DHT22;6014;47.690;9.130;2022-12-07T09:24:32;3.80;99.90
11908;DHT22;6014;47.690;9.130;2022-12-07T09:27:00;3.90;99.90
11908;DHT22;6014;47.690;9.130;2022-12-07T09:29:29;3.80;99.90
11908;DHT22;6014;47.690;9.130;2022-12-07T09:31:57;3.80;99.90
11908;DHT22;6014;47.690;9.130;2022-12-07T09:34:29;3.80;99.90
11908;DHT22;6014;47.690;9.130;2022-12-07T09:37:00;3.70;99.90
11908;DHT22;6014;47.690;9.130;2022-12-07T09:39:29;3.80;99.90
11908;DHT22;6014;47.690;9.130;2022-12-07T09:41:59;3.90;99.90
11908;DHT22;6014;47.690;9.130;2022-12-07T09:44:31;3.80;99.90
11908;DHT22;6014;47.690;9.130;2022-12-07T09:47:00;3.90;99.90
11908;DHT22;6014;47.690;9.130;2022-12-07T09:49:32;3.90;99.90
11908;DHT22;6014;47.690;9.130;2022-12-07T09:52:02;3.90;99.90
11908;DHT22;6014;47.690;9.130;2022-12-07T09:54:47;3.90;99.90
11908;DHT22;6014;47.690;9.130;2022-12-07T09:57:17;4.00;99.90
11908;DHT22;6014;47.690;9.130;2022-12-07T09:59:46;4.00;99.90
11908;DHT22;6014;47.690;9.130;2022-12-07T10:02:25;4.10;99.90
11908;DHT22;6014;47.690;9.130;2022-12-07T10:05:04;4.10;99.90
11908;DHT22;6014;47.690;9.130;2022-12-07T10:07:35;4.20;99.90
11908;DHT22;6014;47.690;9.130;2022-12-07T10:10:04;4.20;99.90
11908;DHT22;6014;47.690;9.130;2022-12-07T10:12:53;4.30;99.90
11908;DHT22;6014;47.690;9.130;2022-12-07T10:15:23;4.30;99.90
11908;DHT22;6014;47.690;9.130;2022-12-07T10:18:18;4.30;99.90
11908;DHT22;6014;47.690;9.130;2022-12-07T10:21:01;4.40;99.90
11908;DHT22;6014;47.690;9.130;2022-12-07T10:23:41;4.40;99.90
11908;DHT22;6014;47.690;9.130;2022-12-07T10:26:29;4.40;99.90
11908;DHT22;6014;47.690;9.130;2022-12-07T10:29:00;4.40;99.90
11908;DHT22;6014;47.690;9.130;2022-12-07T10:31:30;4.40;99.90
11908;DHT22;6014;47.690;9.130;2022-12-07T10:34:00;4.50;99.90
11908;DHT22;6014;47.690;9.130;2022-12-07T10:36:35;4.50;99.90
11908;DHT22;6014;47.690;9.130;2022-12-07T10:39:12;4.40;99.90
11908;DHT22;6014;47.690;9.130;2022-12-07T10:41:53;4.40;99.90
11908;DHT22;6014;47.690;9.130;2022-12-07T10:44:25;4.40;99.90
11908;DHT22;6014;47.690;9.130;2022-12-07T10:47:13;4.30;99.90
11908;DHT22;6014;47.690;9.130;2022-12-07T10:53:38;4.30;99.90
11908;DHT22;6014;47.690;9.130;2022-12-07T10:56:38;4.30;99.90
11908;DHT22;6014;47.690;9.130;2022-12-07T10:59:36;4.30;99.90
11908;DHT22;6014;47.690;9.130;2022-12-07T11:02:20;4.40;99.90
11908;DHT22;6014;47.690;9.130;2022-12-07T11:05:05;4.40;99.90
11908;DHT22;6014;47.690;9.130;2022-12-07T11:07:44;4.40;99.90
11908;DHT22;6014;47.690;9.130;2022-12-07T11:10:27;4.30;99.90
11908;DHT22;6014;47.690;9.130;2022-12-07T11:16:21;4.50;99.90
11908;DHT22;6014;47.690;9.130;2022-12-07T11:21:56;4.40;99.90
11908;DHT22;6014;47.690;9.130;2022-12-07T11:24:32;4.50;99.90
11908;DHT22;6014;47.690;9.130;2022-12-07T11:27:14;4.60;99.90
11908;DHT22;6014;47.690;9.130;2022-12-07T11:30:00;4.70;99.90
11908;DHT22;6014;47.690;9.130;2022-12-07T11:32:56;4.70;99.90
11908;DHT22;6014;47.690;9.130;2022-12-07T11:35:39;4.80;99.90
11908;DHT22;6014;47.690;9.130;2022-12-07T11:38:15;4.70;99.90
11908;DHT22;6014;47.690;9.130;2022-12-07T11:40:55;4.80;99.90
11908;DHT22;6014;47.690;9.130;2022-12-07T11:43:53;4.80;99.90
11908;DHT22;6014;47.690;9.130;2022-12-07T11:46:27;4.90;99.90
11908;DHT22;6014;47.690;9.130;2022-12-07T11:49:03;4.90;99.90
11908;DHT22;6014;47.690;9.130;2022-12-07T11:51:39;5.00;99.90
11908;DHT22;6014;47.690;9.130;2022-12-07T11:54:14;5.00;99.90
11908;DHT22;6014;47.690;9.130;2022-12-07T11:56:46;5.10;99.90
11908;DHT22;6014;47.690;9.130;2022-12-07T11:59:23;5.00;99.90
11908;DHT22;6014;47.690;9.130;2022-12-07T12:01:57;5.00;99.90
11908;DHT22;6014;47.690;9.130;2022-12-07T12:04:37;5.00;99.90
11908;DHT22;6014;47.690;9.130;2022-12-07T12:07:16;5.10;99.90
11908;DHT22;6014;47.690;9.130;2022-12-07T12:10:17;5.30;99.90
11908;DHT22;6014;47.690;9.130;2022-12-07T12:13:03;5.10;99.90
11908;DHT22;6014;47.690;9.130;2022-12-07T12:16:37;5.10;99.90
11908;DHT22;6014;47.690;9.130;2022-12-07T12:19:24;5.10;99.90
11908;DHT22;6014;47.690;9.130;2022-12-07T12:22:00;5.20;99.90
11908;DHT22;6014;47.690;9.130;2022-12-07T12:24:34;5.30;99.90
11908;DHT22;6014;47.690;9.130;2022-12-07T12:27:05;5.30;99.90
11908;DHT22;6014;47.690;9.130;2022-12-07T12:29:37;5.30;99.90
11908;DHT22;6014;47.690;9.130;2022-12-07T12:32:14;5.30;99.90
11908;DHT22;6014;47.690;9.130;2022-12-07T12:35:01;5.30;99.90
11908;DHT22;6014;47.690;9.130;2022-12-07T12:37:46;5.30;99.90
11908;DHT22;6014;47.690;9.130;2022-12-07T12:40:41;5.20;99.90
11908;DHT22;6014;47.690;9.130;2022-12-07T12:43:46;5.10;99.90
11908;DHT22;6014;47.690;9.130;2022-12-07T12:46:48;5.10;99.90
11908;DHT22;6014;47.690;9.130;2022-12-07T12:49:43;5.00;99.90
11908;DHT22;6014;47.690;9.130;2022-12-07T12:53:01;5.10;99.90
11908;DHT22;6014;47.690;9.130;2022-12-07T12:55:52;5.10;99.90
11908;DHT22;6014;47.690;9.130;2022-12-07T12:59:23;5.00;99.90
11908;DHT22;6014;47.690;9.130;2022-12-07T13:01:55;5.10;99.90
11908;DHT22;6014;47.690;9.130;2022-12-07T13:07:54;5.20;99.90
11908;DHT22;6014;47.690;9.130;2022-12-07T13:10:37;5.20;99.90
11908;DHT22;6014;47.690;9.130;2022-12-07T13:13:29;5.20;99.90
11908;DHT22;6014;47.690;9.130;2022-12-07T13:16:37;5.20;99.90
11908;DHT22;6014;47.690;9.130;2022-12-07T13:22:40;5.30;99.90
11908;DHT22;6014;47.690;9.130;2022-12-07T13:25:22;5.30;99.90
11908;DHT22;6014;47.690;9.130;2022-12-07T13:28:01;5.40;99.90
11908;DHT22;6014;47.690;9.130;2022-12-07T13:30:43;5.10;99.90
11908;DHT22;6014;47.690;9.130;2022-12-07T13:33:17;5.20;99.90
11908;DHT22;6014;47.690;9.130;2022-12-07T13:35:46;5.30;99.90
11908;DHT22;6014;47.690;9.130;2022-12-07T13:38:25;5.30;99.90
11908;DHT22;6014;47.690;9.130;2022-12-07T13:41:03;5.30;99.90
11908;DHT22;6014;47.690;9.130;2022-12-07T13:43:46;5.20;99.90
11908;DHT22;6014;47.690;9.130;2022-12-07T13:46:19;5.20;99.90
11908;DHT22;6014;47.690;9.130;2022-12-07T13:48:52;5.20;99.90
11908;DHT22;6014;47.690;9.130;2022-12-07T13:51:24;5.20;99.90
11908;DHT22;6014;47.690;9.130;2022-12-07T13:54:00;5.30;99.90
11908;DHT22;6014;47.690;9.130;2022-12-07T13:56:32;5.20;99.90
11908;DHT22;6014;47.690;9.130;2022-12-07T13:59:05;5.20;99.90
11908;DHT22;6014;47.690;9.130;2022-12-07T14:01:35;5.10;99.90
11908;DHT22;6014;47.690;9.130;2022-12-07T14:04:30;5.10;99.90
11908;DHT22;6014;47.690;9.130;2022-12-07T14:07:16;5.10;99.90
11908;DHT22;6014;47.690;9.130;2022-12-07T14:09:57;5.10;99.90
11908;DHT22;6014;47.690;9.130;2022-12-07T14:12:27;5.10;99.90
11908;DHT22;6014;47.690;9.130;2022-12-07T14:14:58;5.10;99.90
11908;DHT22;6014;47.690;9.130;2022-12-07T14:17:29;5.10;99.90
11908;DHT22;6014;47.690;9.130;2022-12-07T14:19:59;5.00;99.90
11908;DHT22;6014;47.690;9.130;2022-12-07T14:22:32;5.00;99.90
11908;DHT22;6014;47.690;9.130;2022-12-07T14:25:19;5.00;99.90
11908;DHT22;6014;47.690;9.130;2022-12-07T14:27:54;4.90;99.90
11908;DHT22;6014;47.690;9.130;2022-12-07T14:30:26;4.90;99.90
11908;DHT22;6014;47.690;9.130;2022-12-07T14:32:59;4.90;99.90
11908;DHT22;6014;47.690;9.130;2022-12-07T14:35:31;4.90;99.90
11908;DHT22;6014;47.690;9.130;2022-12-07T14:38:00;4.80;99.90
11908;DHT22;6014;47.690;9.130;2022-12-07T14:40:30;4.80;99.90
11908;DHT22;6014;47.690;9.130;2022-12-07T14:43:02;4.80;99.90
11908;DHT22;6014;47.690;9.130;2022-12-07T14:45:31;4.80;99.90
11908;DHT22;6014;47.690;9.130;2022-12-07T14:48:00;4.70;99.90
11908;DHT22;6014;47.690;9.130;2022-12-07T14:50:51;4.70;99.90
11908;DHT22;6014;47.690;9.130;2022-12-07T14:53:48;4.70;99.90
11908;DHT22;6014;47.690;9.130;2022-12-07T14:56:25;4.70;99.90
11908;DHT22;6014;47.690;9.130;2022-12-07T14:58:54;4.60;99.90
11908;DHT22;6014;47.690;9.130;2022-12-07T15:01:22;4.60;99.90
11908;DHT22;6014;47.690;9.130;2022-12-07T15:03:51;4.60;99.90
11908;DHT22;6014;47.690;9.130;2022-12-07T15:06:19;4.60;99.90
11908;DHT22;6014;47.690;9.130;2022-12-07T15:08:47;4.60;99.90
11908;DHT22;6014;47.690;9.130;2022-12-07T15:11:17;4.60;99.90
11908;DHT22;6014;47.690;9.130;2022-12-07T15:13:47;4.50;99.90
11908;DHT22;6014;47.690;9.130;2022-12-07T15:16:33;4.50;99.90
11908;DHT22;6014;47.690;9.130;2022-12-07T15:19:23;4.40;99.90
11908;DHT22;6014;47.690;9.130;2022-12-07T15:21:55;4.30;99.90
11908;DHT22;6014;47.690;9.130;2022-12-07T15:24:24;4.30;99.90
11908;DHT22;6014;47.690;9.130;2022-12-07T15:26:53;4.30;99.90
11908;DHT22;6014;47.690;9.130;2022-12-07T15:29:22;4.20;99.90
11908;DHT22;6014;47.690;9.130;2022-12-07T15:31:51;4.20;99.90
11908;DHT22;6014;47.690;9.130;2022-12-07T15:34:23;4.20;99.90
11908;DHT22;6014;47.690;9.130;2022-12-07T15:36:53;4.10;99.90
11908;DHT22;6014;47.690;9.130;2022-12-07T15:39:22;4.00;99.90
11908;DHT22;6014;47.690;9.130;2022-12-07T15:41:50;4.00;99.90
11908;DHT22;6014;47.690;9.130;2022-12-07T15:44:18;3.90;99.90
11908;DHT22;6014;47.690;9.130;2022-12-07T15:47:06;3.90;99.90
11908;DHT22;6014;47.690;9.130;2022-12-07T15:49:35;3.80;99.90
11908;DHT22;6014;47.690;9.130;2022-12-07T15:52:03;3.80;99.90
11908;DHT22;6014;47.690;9.130;2022-12-07T15:54:32;3.70;99.90
11908;DHT22;6014;47.690;9.130;2022-12-07T15:57:00;3.70;99.90
11908;DHT22;6014;47.690;9.130;2022-12-07T15:59:29;3.60;99.90
11908;DHT22;6014;47.690;9.130;2022-12-07T16:01:57;3.60;99.90
11908;DHT22;6014;47.690;9.130;2022-12-07T16:04:28;3.60;99.90
11908;DHT22;6014;47.690;9.130;2022-12-07T16:06:57;3.60;99.90
11908;DHT22;6014;47.690;9.130;2022-12-07T16:09:25;3.50;99.90
11908;DHT22;6014;47.690;9.130;2022-12-07T16:11:54;3.50;99.90
11908;DHT22;6014;47.690;9.130;2022-12-07T16:14:23;3.50;99.90
11908;DHT22;6014;47.690;9.130;2022-12-07T16:16:51;3.50;99.90
11908;DHT22;6014;47.690;9.130;2022-12-07T16:19:19;3.40;99.90
11908;DHT22;6014;47.690;9.130;2022-12-07T16:21:49;3.40;99.90
11908;DHT22;6014;47.690;9.130;2022-12-07T16:24:18;3.40;99.90
11908;DHT22;6014;47.690;9.130;2022-12-07T16:26:46;3.30;99.90
11908;DHT22;6014;47.690;9.130;2022-12-07T16:29:17;3.20;99.90
11908;DHT22;6014;47.690;9.130;2022-12-07T16:31:46;3.20;99.90
11908;DHT22;6014;47.690;9.130;2022-12-07T16:34:15;3.20;99.90
11908;DHT22;6014;47.690;9.130;2022-12-07T16:36:45;3.10;99.90
11908;DHT22;6014;47.690;9.130;2022-12-07T16:39:33;3.10;99.90
11908;DHT22;6014;47.690;9.130;2022-12-07T16:42:02;3.00;99.90
11908;DHT22;6014;47.690;9.130;2022-12-07T16:44:30;2.90;99.90
11908;DHT22;6014;47.690;9.130;2022-12-07T16:46:59;2.80;99.90
11908;DHT22;6014;47.690;9.130;2022-12-07T16:49:28;2.80;99.90
11908;DHT22;6014;47.690;9.130;2022-12-07T16:51:56;2.70;99.90
11908;DHT22;6014;47.690;9.130;2022-12-07T16:54:47;2.70;99.90
11908;DHT22;6014;47.690;9.130;2022-12-07T16:57:17;2.60;99.90
11908;DHT22;6014;47.690;9.130;2022-12-07T16:59:50;2.60;99.90
11908;DHT22;6014;47.690;9.130;2022-12-07T17:02:18;2.50;99.90
11908;DHT22;6014;47.690;9.130;2022-12-07T17:04:47;2.50;99.90
11908;DHT22;6014;47.690;9.130;2022-12-07T17:07:15;2.50;99.90